createdAt,value
2022-10-28T00:01:15.510Z,4.72
2022-10-28T00:03:45.693Z,4.47
2022-10-28T00:06:23.112Z,4.78
2022-10-28T00:08:50.507Z,5.15
2022-10-28T00:11:27.451Z,4.88
2022-10-28T00:13:57.001Z,5.57
2022-10-28T00:16:27.761Z,5.55
2022-10-28T00:18:56.380Z,5.18
2022-10-28T00:21:30.947Z,5.32
2022-10-28T00:23:58.238Z,5.22
2022-10-28T00:26:31.150Z,5.25
2022-10-28T00:29:04.287Z,5.03
2022-10-28T00:31:33.265Z,5.18
2022-10-28T00:34:02.731Z,5.38
2022-10-28T00:36:34.330Z,5.50
2022-10-28T00:39:04.255Z,5.57
2022-10-28T00:41:37.606Z,5.07
2022-10-28T00:45:03.961Z,4.70
2022-10-28T00:47:52.614Z,4.63
2022-10-28T00:50:41.118Z,5.80
2022-10-28T00:53:31.459Z,5.15
2022-10-28T00:56:03.037Z,5.20
2022-10-28T00:58:30.661Z,5.20
2022-10-28T01:00:57.698Z,4.95
2022-10-28T01:03:25.176Z,4.95
2022-10-28T01:05:53.271Z,5.43
2022-10-28T01:08:20.685Z,5.20
2022-10-28T01:11:43.676Z,5.22
2022-10-28T01:14:23.393Z,5.22
2022-10-28T01:17:18.015Z,5.10
2022-10-28T01:20:29.654Z,5.25
2022-10-28T01:23:22.919Z,5.10
2022-10-28T01:26:35.242Z,4.88
2022-10-28T01:29:29.854Z,4.30
2022-10-28T01:32:09.502Z,5.25
2022-10-28T01:34:53.006Z,5.28
2022-10-28T01:38:05.706Z,5.22
2022-10-28T01:40:51.616Z,4.95
2022-10-28T01:44:14.547Z,5.40
2022-10-28T01:47:25.873Z,5.13
2022-10-28T01:50:10.380Z,4.90
2022-10-28T01:52:40.519Z,5.10
2022-10-28T01:55:16.920Z,5.18
2022-10-28T01:57:45.431Z,4.65
2022-10-28T02:00:13.021Z,4.85
2022-10-28T02:02:42.656Z,4.63
2022-10-28T02:05:49.116Z,4.63
2022-10-28T02:08:22.421Z,5.57
2022-10-28T02:11:13.610Z,4.40
2022-10-28T02:14:15.312Z,5.15
2022-10-28T02:17:37.494Z,4.75
2022-10-28T02:20:16.955Z,4.50
2022-10-28T02:23:20.437Z,4.53
2022-10-28T02:25:54.949Z,4.43
2022-10-28T02:28:55.204Z,5.10
2022-10-28T02:31:36.966Z,4.88
2022-10-28T02:34:21.375Z,4.80
2022-10-28T02:36:55.396Z,4.65
2022-10-28T02:39:37.994Z,4.70
2022-10-28T02:42:14.609Z,3.97
2022-10-28T02:44:49.379Z,4.10
2022-10-28T02:47:22.519Z,3.90
2022-10-28T02:49:57.296Z,4.25
2022-10-28T02:52:29.554Z,4.55
2022-10-28T02:55:00.293Z,5.40
2022-10-28T02:57:37.390Z,4.43
2022-10-28T03:00:19.815Z,4.20
2022-10-28T03:02:47.012Z,4.13
2022-10-28T03:05:14.424Z,4.38
2022-10-28T03:07:41.458Z,4.63
2022-10-28T03:10:09.798Z,4.13
2022-10-28T03:12:36.677Z,4.47
2022-10-28T03:15:04.471Z,4.20
2022-10-28T03:17:31.316Z,4.25
2022-10-28T03:19:58.190Z,4.47
2022-10-28T03:22:24.991Z,3.72
2022-10-28T03:24:51.830Z,4.35
2022-10-28T03:27:18.575Z,3.92
2022-10-28T03:29:46.124Z,4.47
2022-10-28T03:32:13.495Z,4.30
2022-10-28T03:34:40.429Z,4.40
2022-10-28T03:37:07.328Z,4.15
2022-10-28T03:39:34.107Z,4.57
2022-10-28T03:42:00.978Z,4.10
2022-10-28T03:44:27.877Z,4.60
2022-10-28T03:46:54.636Z,4.25
2022-10-28T03:49:21.389Z,4.38
2022-10-28T03:51:48.127Z,4.32
2022-10-28T03:54:14.933Z,4.40
2022-10-28T03:56:41.717Z,4.07
2022-10-28T03:59:13.186Z,3.88
2022-10-28T04:01:41.977Z,4.15
2022-10-28T04:04:08.853Z,4.30
2022-10-28T04:06:35.590Z,4.25
2022-10-28T04:09:02.354Z,4.35
2022-10-28T04:11:29.177Z,4.18
2022-10-28T04:13:55.960Z,4.22
2022-10-28T04:16:22.774Z,4.30
2022-10-28T04:18:49.539Z,4.68
2022-10-28T04:21:17.222Z,4.35
2022-10-28T04:23:44.019Z,4.28
2022-10-28T04:26:10.814Z,4.40
2022-10-28T04:28:37.599Z,4.25
2022-10-28T04:31:04.564Z,4.25
2022-10-28T04:33:31.485Z,4.45
2022-10-28T04:35:58.393Z,4.20
2022-10-28T04:40:51.897Z,4.63
2022-10-28T04:43:18.667Z,4.40
2022-10-28T04:45:47.312Z,4.45
2022-10-28T04:48:14.265Z,5.00
2022-10-28T04:50:41.327Z,4.07
2022-10-28T04:53:08.092Z,4.63
2022-10-28T04:55:34.793Z,5.38
2022-10-28T04:58:02.026Z,4.25
2022-10-28T05:00:30.123Z,4.10
2022-10-28T05:02:57.886Z,5.03
2022-10-28T05:05:25.769Z,5.18
2022-10-28T05:07:52.930Z,4.70
2022-10-28T05:10:19.951Z,4.72
2022-10-28T05:12:46.913Z,5.07
2022-10-28T05:15:15.359Z,4.82
2022-10-28T05:17:47.353Z,5.32
2022-10-28T05:20:17.600Z,5.47
2022-10-28T05:22:53.911Z,5.72
2022-10-28T05:25:22.352Z,5.78
2022-10-28T05:27:49.521Z,4.03
2022-10-28T05:30:16.515Z,5.15
2022-10-28T05:32:43.902Z,4.70
2022-10-28T05:35:10.951Z,5.07
2022-10-28T05:37:38.071Z,5.70
2022-10-28T05:40:05.459Z,5.03
2022-10-28T05:42:32.200Z,4.82
2022-10-28T05:44:58.987Z,5.07
2022-10-28T05:47:25.791Z,6.05
2022-10-28T05:49:52.596Z,6.13
2022-10-28T05:52:19.800Z,4.88
2022-10-28T05:54:46.548Z,5.30
2022-10-28T05:57:13.314Z,4.70
2022-10-28T05:59:40.181Z,5.25
2022-10-28T06:02:13.658Z,4.75
2022-10-28T06:04:41.610Z,5.00
2022-10-28T06:07:08.950Z,5.63
2022-10-28T06:09:35.880Z,4.85
2022-10-28T06:12:01.257Z,4.80
2022-10-28T06:14:28.132Z,5.50
2022-10-28T06:16:54.917Z,5.05
2022-10-28T06:19:21.809Z,5.85
2022-10-28T06:21:48.581Z,5.60
2022-10-28T06:24:15.374Z,6.28
2022-10-28T06:26:42.417Z,6.82
2022-10-28T06:29:10.279Z,7.40
2022-10-28T06:31:41.425Z,6.00
2022-10-28T06:34:09.487Z,7.30
2022-10-28T06:36:37.164Z,6.60
2022-10-28T06:39:04.768Z,6.15
2022-10-28T06:41:31.941Z,6.65
2022-10-28T06:43:58.771Z,6.35
2022-10-28T06:46:26.153Z,5.78
2022-10-28T06:48:57.489Z,6.18
2022-10-28T06:51:25.495Z,5.93
2022-10-28T06:53:52.905Z,5.70
2022-10-28T06:56:19.810Z,6.18
2022-10-28T06:58:54.667Z,6.10
2022-10-28T07:01:22.594Z,6.22
2022-10-28T07:03:49.868Z,5.60
2022-10-28T07:06:17.861Z,5.22
2022-10-28T07:08:44.747Z,5.13
2022-10-28T07:11:11.497Z,5.00
2022-10-28T07:13:38.344Z,5.32
2022-10-28T07:16:05.581Z,5.13
2022-10-28T07:18:32.458Z,5.32
2022-10-28T07:21:01.348Z,5.05
2022-10-28T07:23:29.052Z,5.25
2022-10-28T07:25:56.892Z,6.85
2022-10-28T07:28:25.914Z,8.57
2022-10-28T07:30:52.832Z,7.75
2022-10-28T07:33:20.084Z,7.13
2022-10-28T07:35:47.186Z,5.05
2022-10-28T07:38:13.963Z,5.03
2022-10-28T07:40:40.765Z,5.50
2022-10-28T07:43:07.531Z,4.70
2022-10-28T07:45:35.701Z,4.93
2022-10-28T07:48:04.065Z,5.07
2022-10-28T07:50:30.966Z,5.28
2022-10-28T07:52:57.831Z,5.68
2022-10-28T07:55:26.131Z,5.55
2022-10-28T07:57:53.255Z,5.85
2022-10-28T08:00:20.374Z,5.82
2022-10-28T08:02:47.241Z,5.53
2022-10-28T08:05:14.086Z,5.35
2022-10-28T08:07:40.952Z,5.47
2022-10-28T08:10:08.253Z,5.82
2022-10-28T08:12:35.013Z,5.53
2022-10-28T08:15:02.714Z,5.60
2022-10-28T08:17:30.005Z,5.15
2022-10-28T08:19:56.858Z,5.35
2022-10-28T08:22:23.839Z,4.80
2022-10-28T08:24:50.590Z,5.35
2022-10-28T08:27:17.375Z,6.28
2022-10-28T08:29:44.178Z,7.15
2022-10-28T08:32:11.188Z,5.63
2022-10-28T08:34:40.903Z,6.10
2022-10-28T08:37:10.557Z,4.72
2022-10-28T08:39:37.414Z,4.18
2022-10-28T08:42:32.982Z,4.53
2022-10-28T08:45:38.758Z,4.93
2022-10-28T08:48:27.905Z,4.18
2022-10-28T08:51:09.442Z,4.32
2022-10-28T08:53:53.508Z,4.43
2022-10-28T08:56:31.609Z,4.40
2022-10-28T08:59:04.819Z,4.43
2022-10-28T09:01:48.376Z,4.60
2022-10-28T09:04:43.396Z,3.63
2022-10-28T09:07:18.588Z,3.47
2022-10-28T09:09:47.097Z,4.00
2022-10-28T09:12:31.889Z,3.58
2022-10-28T09:15:18.002Z,3.53
2022-10-28T09:18:11.798Z,3.67
2022-10-28T09:21:04.811Z,3.75
2022-10-28T09:23:37.132Z,3.63
2022-10-28T09:27:03.285Z,3.65
2022-10-28T09:30:28.226Z,4.45
2022-10-28T09:33:28.208Z,3.47
2022-10-28T09:35:56.900Z,3.72
2022-10-28T09:38:35.562Z,3.65
2022-10-28T09:41:34.110Z,3.75
2022-10-28T09:44:23.944Z,3.78
2022-10-28T09:46:58.739Z,3.60
2022-10-28T09:49:34.463Z,3.50
2022-10-28T09:52:19.958Z,3.72
2022-10-28T09:54:52.615Z,3.28
2022-10-28T09:57:22.123Z,3.83
2022-10-28T09:59:49.152Z,3.53
2022-10-28T10:02:30.359Z,3.90
2022-10-28T10:04:59.475Z,3.78
2022-10-28T10:08:00.282Z,3.90
2022-10-28T10:10:36.034Z,3.47
2022-10-28T10:13:06.891Z,2.95
2022-10-28T10:15:54.146Z,3.22
2022-10-28T10:18:30.002Z,3.47
2022-10-28T10:20:58.779Z,3.55
2022-10-28T10:23:32.566Z,3.08
2022-10-28T10:26:11.110Z,3.40
2022-10-28T10:28:49.356Z,3.97
2022-10-28T10:31:27.312Z,3.05
2022-10-28T10:33:57.609Z,3.47
2022-10-28T10:36:31.385Z,3.63
2022-10-28T10:39:01.918Z,2.90
2022-10-28T10:41:44.680Z,3.30
2022-10-28T10:44:30.545Z,3.50
2022-10-28T10:47:05.051Z,3.05
2022-10-28T10:49:36.941Z,3.30
2022-10-28T10:52:15.566Z,3.45
2022-10-28T10:54:59.683Z,3.65
2022-10-28T10:57:27.494Z,3.30
2022-10-28T10:59:56.985Z,3.58
2022-10-28T11:02:36.972Z,3.55
2022-10-28T11:05:10.054Z,3.38
2022-10-28T11:07:44.985Z,3.03
2022-10-28T11:10:25.388Z,2.90
2022-10-28T11:13:23.301Z,3.10
2022-10-28T11:16:06.545Z,2.28
2022-10-28T11:18:43.813Z,2.95
2022-10-28T11:21:49.129Z,3.35
2022-10-28T11:24:40.105Z,2.45
2022-10-28T11:27:51.732Z,3.33
2022-10-28T11:30:47.629Z,3.83
2022-10-28T11:33:35.030Z,3.42
2022-10-28T11:36:36.610Z,2.97
2022-10-28T11:39:19.813Z,4.30
2022-10-28T11:42:04.290Z,3.25
2022-10-28T11:45:13.542Z,3.70
2022-10-28T11:48:08.340Z,2.85
2022-10-28T11:50:54.923Z,3.33
2022-10-28T11:53:54.450Z,3.85
2022-10-28T11:56:47.120Z,2.85
2022-10-28T11:59:26.728Z,3.00
2022-10-28T12:02:54.973Z,3.03
2022-10-28T12:05:39.030Z,3.05
2022-10-28T12:08:20.617Z,2.83
2022-10-28T12:11:21.824Z,3.05
2022-10-28T12:13:58.436Z,2.70
2022-10-28T12:16:55.977Z,2.60
2022-10-28T12:19:32.599Z,3.13
2022-10-28T12:22:10.463Z,2.78
2022-10-28T12:24:41.066Z,3.53
2022-10-28T12:27:31.278Z,2.85
2022-10-28T12:30:14.104Z,2.67
2022-10-28T12:32:44.354Z,2.80
2022-10-28T12:35:29.716Z,3.10
2022-10-28T12:38:06.758Z,2.85
2022-10-28T12:40:49.564Z,3.42
2022-10-28T12:43:57.208Z,3.00
2022-10-28T12:46:38.748Z,3.10
2022-10-28T12:49:34.949Z,3.00
2022-10-28T12:52:22.106Z,3.10
2022-10-28T12:55:24.438Z,3.13
2022-10-28T12:58:01.293Z,3.13
2022-10-28T13:00:37.804Z,2.92
2022-10-28T13:03:13.498Z,2.80
2022-10-28T13:05:45.770Z,3.08
2022-10-28T13:08:46.571Z,3.40
2022-10-28T13:11:19.407Z,2.88
2022-10-28T13:14:48.746Z,3.10
2022-10-28T13:17:41.478Z,3.15
2022-10-28T13:20:42.733Z,2.90
2022-10-28T13:23:28.799Z,2.97
2022-10-28T13:26:01.152Z,3.08
2022-10-28T13:28:35.319Z,3.40
2022-10-28T13:31:08.086Z,2.97
2022-10-28T13:33:38.454Z,3.10
2022-10-28T13:36:35.353Z,3.85
2022-10-28T13:39:06.913Z,3.05
2022-10-28T13:41:43.387Z,3.53
2022-10-28T13:44:25.846Z,3.72
2022-10-28T13:47:04.247Z,2.40
2022-10-28T13:49:35.902Z,2.75
2022-10-28T13:52:23.018Z,2.72
2022-10-28T13:54:54.425Z,2.90
2022-10-28T13:57:37.778Z,3.00
2022-10-28T14:00:06.468Z,2.40
2022-10-28T14:02:46.319Z,2.95
2022-10-28T14:05:17.985Z,3.33
2022-10-28T14:07:56.666Z,3.13
2022-10-28T14:10:28.871Z,3.08
2022-10-28T14:13:00.761Z,2.78
2022-10-28T14:15:38.191Z,3.08
2022-10-28T14:21:05.716Z,2.83
2022-10-28T14:23:32.459Z,3.08
2022-10-28T14:26:04.604Z,2.97
2022-10-28T14:28:31.493Z,3.05
2022-10-28T14:31:12.991Z,2.95
2022-10-28T14:33:53.833Z,2.90
2022-10-28T14:36:20.493Z,3.35
2022-10-28T14:39:04.340Z,2.88
2022-10-28T14:41:57.016Z,3.20
2022-10-28T14:44:49.565Z,2.95
2022-10-28T14:47:43.638Z,2.80
2022-10-28T14:50:38.924Z,3.08
2022-10-28T14:53:28.989Z,3.53
2022-10-28T14:56:28.205Z,3.85
2022-10-28T14:59:03.302Z,3.20
2022-10-28T15:01:55.770Z,4.18
2022-10-28T15:04:23.301Z,3.30
2022-10-28T15:06:52.168Z,3.72
2022-10-28T15:09:33.072Z,3.97
2022-10-28T15:12:09.841Z,3.55
2022-10-28T15:14:45.985Z,3.45
2022-10-28T15:17:23.429Z,3.30
2022-10-28T15:20:01.155Z,3.45
2022-10-28T15:22:33.193Z,3.25
2022-10-28T15:25:04.472Z,3.22
2022-10-28T15:27:35.184Z,3.28
2022-10-28T15:30:04.082Z,2.80
2022-10-28T15:32:35.715Z,3.10
2022-10-28T15:35:30.632Z,3.17
2022-10-28T15:38:01.863Z,3.40
2022-10-28T15:40:32.670Z,3.42
2022-10-28T15:43:16.817Z,3.42
2022-10-28T15:45:44.830Z,3.72
2022-10-28T15:48:18.802Z,3.38
2022-10-28T15:50:45.741Z,3.92
2022-10-28T15:53:35.422Z,3.10
2022-10-28T15:56:14.043Z,3.80
2022-10-28T15:58:46.784Z,3.22
2022-10-28T16:01:35.732Z,3.63
2022-10-28T16:04:02.598Z,3.30
2022-10-28T16:06:33.651Z,2.95
2022-10-28T16:09:09.277Z,3.33
2022-10-28T16:11:42.422Z,3.60
2022-10-28T16:14:31.284Z,3.28
2022-10-28T16:17:36.149Z,3.25
2022-10-28T16:20:20.436Z,3.13
2022-10-28T16:22:48.362Z,3.20
2022-10-28T16:25:20.549Z,3.25
2022-10-28T16:27:49.433Z,3.30
2022-10-28T16:30:16.423Z,4.35
2022-10-28T16:32:49.568Z,3.75
2022-10-28T16:35:22.889Z,3.55
2022-10-28T16:37:54.621Z,3.47
2022-10-28T16:40:49.513Z,3.58
2022-10-28T16:43:16.548Z,3.53
2022-10-28T16:45:43.678Z,4.05
2022-10-28T16:48:16.246Z,3.60
2022-10-28T16:51:00.394Z,4.10
2022-10-28T16:53:27.821Z,3.80
2022-10-28T16:56:00.875Z,4.13
2022-10-28T16:58:33.559Z,4.85
2022-10-28T17:01:00.441Z,3.40
2022-10-28T17:03:27.202Z,3.88
2022-10-28T17:05:54.044Z,4.28
2022-10-28T17:08:42.124Z,4.18
2022-10-28T17:11:13.668Z,3.97
2022-10-28T17:13:40.456Z,4.47
2022-10-28T17:16:07.639Z,5.28
2022-10-28T17:18:34.373Z,5.15
2022-10-28T17:21:02.828Z,4.45
2022-10-28T17:23:30.217Z,5.00
2022-10-28T17:26:02.680Z,4.45
2022-10-28T17:28:30.027Z,4.35
2022-10-28T17:31:06.143Z,4.20
2022-10-28T17:33:33.442Z,4.22
2022-10-28T17:36:07.797Z,4.55
2022-10-28T17:38:34.852Z,4.85
2022-10-28T17:41:01.748Z,4.82
2022-10-28T17:43:28.638Z,5.55
2022-10-28T17:46:06.371Z,4.13
2022-10-28T17:48:34.209Z,3.92
2022-10-28T17:51:01.202Z,4.07
2022-10-28T17:53:28.140Z,5.55
2022-10-28T17:56:04.967Z,4.40
2022-10-28T17:58:33.013Z,4.75
2022-10-28T18:01:06.640Z,4.57
2022-10-28T18:03:38.957Z,4.32
2022-10-28T18:06:11.096Z,4.57
2022-10-28T18:08:41.393Z,4.43
2022-10-28T18:11:12.457Z,4.80
2022-10-28T18:13:44.654Z,4.88
2022-10-28T18:16:21.593Z,5.05
2022-10-28T18:18:48.434Z,5.50
2022-10-28T18:21:15.370Z,5.85
2022-10-28T18:23:42.307Z,4.65
2022-10-28T18:26:17.523Z,5.05
2022-10-28T18:28:45.776Z,5.60
2022-10-28T18:31:16.465Z,5.25
2022-10-28T18:33:44.677Z,4.95
2022-10-28T18:36:15.261Z,6.10
2022-10-28T18:38:42.433Z,8.73
2022-10-28T18:41:11.554Z,9.98
2022-10-28T18:43:39.391Z,20.30
2022-10-28T18:46:06.645Z,18.75
2022-10-28T18:48:33.549Z,24.05
2022-10-28T18:51:06.768Z,17.15
2022-10-28T18:53:43.794Z,11.98
2022-10-28T18:56:15.237Z,8.93
2022-10-28T18:58:43.943Z,8.95
2022-10-28T19:01:17.293Z,7.57
2022-10-28T19:03:44.564Z,7.93
2022-10-28T19:06:16.833Z,8.57
2022-10-28T19:08:44.476Z,8.57
2022-10-28T19:11:13.626Z,9.13
2022-10-28T19:13:42.202Z,8.60
2022-10-28T19:16:09.462Z,11.82
2022-10-28T19:18:38.206Z,11.82
2022-10-28T19:21:14.114Z,12.75
2022-10-28T19:23:42.658Z,11.88
2022-10-28T19:26:12.215Z,10.80
2022-10-28T19:28:44.623Z,11.15
2022-10-28T19:31:18.312Z,11.23
2022-10-28T19:33:45.435Z,11.30
2022-10-28T19:36:20.405Z,9.20
2022-10-28T19:38:49.279Z,9.82
2022-10-28T19:41:25.862Z,10.77
2022-10-28T19:43:58.122Z,10.90
2022-10-28T19:46:28.367Z,9.48
2022-10-28T19:48:58.944Z,10.45
2022-10-28T19:51:40.743Z,9.18
2022-10-28T19:54:12.966Z,9.60
2022-10-28T19:56:40.075Z,7.38
2022-10-28T19:59:07.154Z,8.40
2022-10-28T20:01:37.567Z,7.55
2022-10-28T20:04:05.185Z,6.60
2022-10-28T20:06:35.515Z,7.45
2022-10-28T20:09:03.686Z,7.68
2022-10-28T20:11:33.576Z,8.77
2022-10-28T20:14:12.650Z,9.13
2022-10-28T20:16:46.036Z,9.13
2022-10-28T20:19:12.921Z,9.30
2022-10-28T20:21:40.168Z,8.13
2022-10-28T20:24:08.065Z,9.32
2022-10-28T20:26:38.139Z,7.75
2022-10-28T20:29:09.723Z,10.02
2022-10-28T20:31:38.803Z,9.05
2022-10-28T20:34:08.953Z,8.57
2022-10-28T20:36:46.500Z,7.60
2022-10-28T20:39:20.815Z,8.65
2022-10-28T20:41:48.994Z,7.95
2022-10-28T20:44:16.488Z,6.05
2022-10-28T20:46:47.933Z,6.47
2022-10-28T20:49:15.297Z,6.80
2022-10-28T20:51:42.489Z,7.15
2022-10-28T20:54:09.512Z,8.50
2022-10-28T20:56:38.778Z,9.05
2022-10-28T20:59:06.141Z,8.80
2022-10-28T21:01:37.492Z,10.60
2022-10-28T21:04:08.672Z,8.13
2022-10-28T21:06:38.044Z,8.95
2022-10-28T21:09:05.319Z,7.60
2022-10-28T21:11:32.624Z,8.10
2022-10-28T21:14:01.561Z,8.10
2022-10-28T21:16:30.417Z,7.57
2022-10-28T21:18:59.244Z,7.60
2022-10-28T21:21:27.010Z,8.30
2022-10-28T21:23:54.139Z,8.05
2022-10-28T21:26:21.837Z,7.10
2022-10-28T21:28:53.534Z,7.00
2022-10-28T21:31:21.820Z,7.63
2022-10-28T21:36:22.880Z,6.53
2022-10-28T21:38:54.922Z,8.35
2022-10-28T21:41:23.092Z,7.28
2022-10-28T21:43:52.408Z,6.80
2022-10-28T21:46:21.456Z,7.85
2022-10-28T21:48:49.522Z,7.00
2022-10-28T21:51:17.574Z,7.43
2022-10-28T21:53:45.089Z,8.45
2022-10-28T21:56:19.255Z,8.73
2022-10-28T21:58:49.456Z,8.82
2022-10-28T22:01:23.792Z,10.50
2022-10-28T22:03:53.464Z,10.63
2022-10-28T22:06:20.286Z,10.70
2022-10-28T22:08:47.455Z,9.57
2022-10-28T22:11:18.186Z,8.88
2022-10-28T22:13:45.616Z,7.38
2022-10-28T22:16:15.974Z,8.68
2022-10-28T22:18:44.388Z,8.90
2022-10-28T22:21:17.389Z,8.07
2022-10-28T22:23:44.984Z,6.53
2022-10-28T22:26:21.707Z,7.38
2022-10-28T22:28:49.583Z,8.00
2022-10-28T22:31:20.395Z,8.85
2022-10-28T22:33:48.236Z,7.82
2022-10-28T22:36:22.209Z,7.97
2022-10-28T22:38:49.666Z,8.45
2022-10-28T22:41:26.046Z,8.35
2022-10-28T22:43:58.504Z,9.20
2022-10-28T22:46:29.566Z,8.43
2022-10-28T22:48:57.615Z,8.75
2022-10-28T22:51:24.888Z,8.32
2022-10-28T22:53:51.751Z,7.30
2022-10-28T22:56:24.144Z,8.15
2022-10-28T22:59:01.992Z,7.50
2022-10-28T23:01:29.904Z,10.18
2022-10-28T23:03:57.157Z,8.45
2022-10-28T23:06:26.769Z,9.30
2022-10-28T23:08:54.495Z,9.15
2022-10-28T23:11:22.741Z,8.25
2022-10-28T23:13:54.417Z,8.85
2022-10-28T23:16:23.426Z,8.05
2022-10-28T23:18:52.752Z,7.93
2022-10-28T23:21:23.005Z,8.00
2022-10-28T23:23:55.916Z,7.72
2022-10-28T23:26:23.744Z,8.23
2022-10-28T23:28:53.616Z,8.70
2022-10-28T23:31:21.807Z,8.10
2022-10-28T23:33:49.388Z,8.32
2022-10-28T23:36:17.065Z,8.50
2022-10-28T23:38:44.071Z,6.88
2022-10-28T23:41:15.993Z,7.55
2022-10-28T23:43:42.944Z,7.22
2022-10-28T23:46:10.588Z,7.90
2022-10-28T23:48:37.781Z,7.90
2022-10-28T23:51:05.088Z,7.80
2022-10-28T23:53:31.903Z,7.70
2022-10-28T23:55:58.879Z,8.32
2022-10-28T23:58:26.305Z,8.23
